Time;durP1;ratioP1;P1;durP2;ratioP2;P2;SDS_P1;SDS_P2;PMS_P1;PMS_P2;Temp;Humidity;BMP_temperature;BMP_pressure;BME280_temperature;BME280_humidity;BME280_pressure;Samples;Min_cycle;Max_cycle;Signal;HPM_P1;HPM_P2
2023/09/05 00:00:44;;;;;;;2.40;1.80;;;;;;;17.11;94.56;94982.06;4796582;29;20424;-80
2023/09/05 00:03:10;;;;;;;4.63;2.08;;;;;;;16.95;95.06;94973.06;4796352;29;20520;-81
2023/09/05 00:05:35;;;;;;;2.00;1.77;;;;;;;17.00;95.38;94982.16;4797776;29;20579;-80
2023/09/05 00:08:01;;;;;;;1.92;1.60;;;;;;;17.04;95.45;94980.63;4800970;29;20256;-81
2023/09/05 00:10:26;;;;;;;2.20;2.00;;;;;;;17.04;95.70;94968.13;4804601;29;20277;-81
2023/09/05 00:12:51;;;;;;;3.50;1.65;;;;;;;17.12;95.49;94978.34;4795824;29;20336;-81
2023/09/05 00:15:18;;;;;;;3.28;1.80;;;;;;;17.05;95.57;94961.75;4795767;29;20208;-81
2023/09/05 00:17:43;;;;;;;3.10;1.70;;;;;;;16.99;95.31;94952.09;4780618;29;20277;-81
2023/09/05 00:20:09;;;;;;;2.58;1.90;;;;;;;17.00;95.12;94942.28;4794559;29;20258;-81
2023/09/05 00:22:35;;;;;;;1.90;1.80;;;;;;;17.14;95.33;94967.44;4801193;29;20188;-80
2023/09/05 00:25:01;;;;;;;3.08;1.83;;;;;;;17.11;95.51;94944.81;4801974;29;20577;-80
2023/09/05 00:27:27;;;;;;;1.83;1.50;;;;;;;17.13;95.20;94953.31;4778835;29;20240;-81
2023/09/05 00:29:52;;;;;;;1.90;1.63;;;;;;;17.08;95.78;94939.97;4798756;29;20649;-81
2023/09/05 00:32:20;;;;;;;1.60;1.50;;;;;;;17.07;95.14;94945.53;4795469;29;20185;-81
2023/09/05 00:34:47;;;;;;;5.10;3.70;;;;;;;17.25;95.02;94963.84;4789989;29;20508;-80
2023/09/05 00:37:19;;;;;;;4.60;3.33;;;;;;;17.27;95.00;94962.53;4782063;29;20544;-80
2023/09/05 00:39:45;;;;;;;6.80;6.10;;;;;;;17.25;94.53;94950.53;4798123;29;20184;-81
2023/09/05 00:42:12;;;;;;;13.55;10.98;;;;;;;17.12;95.17;94935.78;4798276;29;20235;-81
2023/09/05 00:44:37;;;;;;;9.80;7.53;;;;;;;17.10;95.05;94935.22;4798882;29;20209;-81
2023/09/05 00:47:04;;;;;;;7.70;5.90;;;;;;;17.01;95.51;94947.34;4799042;29;20576;-80
2023/09/05 00:49:38;;;;;;;13.05;6.45;;;;;;;16.97;96.18;94947.03;4795357;29;20187;-81
2023/09/05 00:52:05;;;;;;;5.43;4.50;;;;;;;16.75;96.11;94903.69;4778735;29;20199;-81
2023/09/05 00:54:32;;;;;;;8.40;6.70;;;;;;;17.03;96.58;94952.44;4773264;29;20483;-81
2023/09/05 00:56:58;;;;;;;6.55;4.95;;;;;;;17.02;96.85;94943.63;4778439;29;20185;-81
2023/09/05 00:59:24;;;;;;;4.43;4.00;;;;;;;17.05;96.85;94943.13;4795060;29;20685;-81
2023/09/05 01:01:49;;;;;;;3.80;3.20;;;;;;;17.00;96.12;94936.94;4794335;29;20427;-80
2023/09/05 01:04:16;;;;;;;7.13;3.30;;;;;;;16.83;95.96;94899.78;4795426;29;20185;-80
2023/09/05 01:07:06;;;;;;;1.88;1.73;;;;;;;17.13;94.46;94953.31;4798639;29;20755;-81
2023/09/05 01:09:46;;;;;;;1.70;1.50;;;;;;;17.13;94.35;94952.53;4804654;29;20458;-81
2023/09/05 01:12:12;;;;;;;2.97;2.25;;;;;;;17.14;94.46;94948.81;4806009;29;20176;-81
2023/09/05 01:14:37;;;;;;;2.60;2.05;;;;;;;17.13;94.70;94948.00;4803887;29;20202;-80
2023/09/05 01:17:05;;;;;;;1.58;1.48;;;;;;;17.18;93.90;94952.59;4795789;29;20214;-80
2023/09/05 01:19:34;;;;;;;3.25;1.90;;;;;;;17.24;95.14;94954.25;4795065;29;20241;-80
2023/09/05 01:22:43;;;;;;;1.90;1.70;;;;;;;17.13;93.14;94949.84;4797112;29;20502;-80
2023/09/05 01:25:11;;;;;;;1.42;1.33;;;;;;;17.14;93.51;94948.81;4762146;29;20272;-80
2023/09/05 01:27:36;;;;;;;1.73;1.63;;;;;;;17.30;93.34;94971.88;4796859;29;20278;-80
2023/09/05 01:30:05;;;;;;;2.20;1.50;;;;;;;17.29;93.46;94967.63;4795008;29;20649;-81
2023/09/05 01:32:31;;;;;;;1.73;1.63;;;;;;;17.35;93.89;94966.63;4798279;29;20189;-81
2023/09/05 01:34:57;;;;;;;1.70;1.60;;;;;;;17.40;93.78;94963.19;4799402;29;20191;-81
2023/09/05 01:37:23;;;;;;;1.75;1.65;;;;;;;17.29;93.88;94931.19;4796783;29;20641;-80
2023/09/05 01:39:49;;;;;;;1.48;1.38;;;;;;;17.48;93.02;94949.44;4796796;29;20641;-81
2023/09/05 01:42:14;;;;;;;1.50;1.40;;;;;;;17.42;93.40;94932.63;4794784;29;20181;-81
2023/09/05 01:44:40;;;;;;;1.50;1.40;;;;;;;17.32;94.13;94912.03;4777977;29;20246;-80
2023/09/05 01:47:05;;;;;;;1.55;1.45;;;;;;;17.44;94.06;94929.72;4791896;29;20180;-80
2023/09/05 01:49:31;;;;;;;2.00;1.60;;;;;;;17.50;94.38;94934.81;4787167;30;20179;-81
2023/09/05 01:51:56;;;;;;;1.92;1.80;;;;;;;17.53;91.69;94942.31;4787090;30;20211;-81
2023/09/05 01:54:22;;;;;;;1.52;1.42;;;;;;;17.55;91.68;94945.53;4787689;30;20161;-81
2023/09/05 01:56:47;;;;;;;1.48;1.38;;;;;;;17.57;91.36;94935.41;4787109;30;20169;-81
2023/09/05 01:59:14;;;;;;;2.40;2.20;;;;;;;17.39;92.23;94914.47;4794837;29;20652;-81
2023/09/05 02:01:39;;;;;;;2.65;1.60;;;;;;;17.56;92.60;94941.00;4796056;29;20180;-80
2023/09/05 02:04:05;;;;;;;1.60;1.50;;;;;;;17.55;92.29;94945.53;4796203;29;20235;-81
2023/09/05 02:06:30;;;;;;;2.20;1.80;;;;;;;17.53;92.79;94950.31;4796749;29;20183;-81
2023/09/05 02:08:56;;;;;;;2.20;2.00;;;;;;;17.55;93.62;94955.38;4770939;30;20215;-80
2023/09/05 02:11:21;;;;;;;1.67;1.55;;;;;;;17.53;92.67;94946.84;4787259;30;20707;-80
2023/09/05 02:13:47;;;;;;;2.40;1.63;;;;;;;17.54;92.45;94943.13;4787260;30;20552;-80
2023/09/05 02:16:18;;;;;;;1.80;1.70;;;;;;;17.53;92.21;94957.50;4793263;29;20609;-80
2023/09/05 02:18:47;;;;;;;2.05;1.70;;;;;;;17.60;92.12;94958.88;4797952;29;20176;-80
2023/09/05 02:21:13;;;;;;;2.90;1.80;;;;;;;17.57;92.08;94963.91;4800855;29;20540;-80
2023/09/05 02:23:39;;;;;;;1.95;1.80;;;;;;;17.49;92.54;94967.00;4798311;29;20192;-80
2023/09/05 02:26:04;;;;;;;1.75;1.65;;;;;;;17.51;92.91;94962.25;4796288;29;20586;-80
2023/09/05 02:28:30;;;;;;;2.97;1.95;;;;;;;17.52;92.24;94970.00;4799466;29;20244;-80
2023/09/05 02:30:55;;;;;;;3.33;1.70;;;;;;;17.33;92.64;94952.75;4801375;29;20341;-80
2023/09/05 02:33:21;;;;;;;1.90;1.70;;;;;;;17.49;91.62;94967.81;4790374;29;20081;-80
2023/09/05 02:35:48;;;;;;;2.15;1.95;;;;;;;17.27;91.67;94932.47;4790975;29;20441;-80
2023/09/05 02:38:13;;;;;;;2.17;1.80;;;;;;;17.43;92.50;94960.03;4799843;29;20226;-80
2023/09/05 02:40:43;;;;;;;2.90;2.05;;;;;;;17.47;93.07;94961.94;4796562;29;20204;-80
2023/09/05 02:43:09;;;;;;;2.53;1.73;;;;;;;17.33;92.36;94944.78;4797003;29;20429;-80
2023/09/05 02:45:34;;;;;;;1.90;1.80;;;;;;;17.43;92.62;94960.84;4799538;29;20180;-80
2023/09/05 02:48:00;;;;;;;3.08;1.85;;;;;;;17.36;91.70;94944.28;4798935;29;20522;-80
2023/09/05 02:50:25;;;;;;;2.42;2.05;;;;;;;17.30;91.54;94935.41;4798029;29;20352;-80
2023/09/05 02:52:50;;;;;;;2.72;1.90;;;;;;;17.44;91.39;94962.47;4801131;29;20435;-78
2023/09/05 02:55:16;;;;;;;2.65;1.90;;;;;;;17.35;92.42;94946.13;4799939;29;20657;-80
2023/09/05 02:57:41;;;;;;;1.90;1.80;;;;;;;17.35;91.84;94951.47;4796392;29;20279;-80
2023/09/05 03:00:07;;;;;;;3.80;2.50;;;;;;;17.29;92.02;94952.47;4800185;29;20794;-80
2023/09/05 03:02:33;;;;;;;2.10;1.90;;;;;;;17.32;92.90;94954.59;4794408;29;20281;-80
2023/09/05 03:04:59;;;;;;;2.50;2.30;;;;;;;17.19;91.95;94930.25;4796760;29;20416;-80
2023/09/05 03:07:24;;;;;;;2.42;1.90;;;;;;;17.33;92.46;94968.72;4779010;30;20188;-80
2023/09/05 03:09:51;;;;;;;4.60;2.90;;;;;;;17.32;92.00;94975.91;4796863;29;20437;-79
2023/09/05 03:12:17;;;;;;;5.05;2.78;;;;;;;17.26;92.43;94974.25;4793081;29;20201;-79
2023/09/05 03:14:43;;;;;;;3.08;2.78;;;;;;;17.24;92.65;94972.88;4789661;30;20657;-80
2023/09/05 03:17:09;;;;;;;2.67;2.47;;;;;;;17.28;92.15;94974.81;4793513;29;20204;-79
2023/09/05 03:19:39;;;;;;;2.78;2.58;;;;;;;17.10;92.17;94961.00;4801675;29;20188;-80
2023/09/05 03:22:08;;;;;;;3.00;2.65;;;;;;;17.02;92.87;94943.63;4780625;29;20184;-80
2023/09/05 03:24:34;;;;;;;5.28;2.88;;;;;;;17.15;92.80;94966.38;4805948;29;20179;-79
2023/09/05 03:27:00;;;;;;;4.68;3.40;;;;;;;17.10;92.78;94963.69;4800263;29;20468;-78
2023/09/05 03:29:25;;;;;;;3.55;3.05;;;;;;;17.22;92.70;94982.94;4781958;29;20188;-79
2023/09/05 03:31:52;;;;;;;6.22;2.90;;;;;;;17.12;92.83;94977.53;4799008;29;20204;-79
2023/09/05 03:34:17;;;;;;;3.67;2.50;;;;;;;17.01;93.14;94967.81;4799208;29;20204;-80
2023/09/05 03:36:43;;;;;;;4.00;3.40;;;;;;;17.16;92.60;94983.97;4800566;29;20187;-80
2023/09/05 03:39:08;;;;;;;4.70;4.03;;;;;;;17.16;92.47;94997.25;4799962;29;20432;-80
2023/09/05 03:41:35;;;;;;;4.88;4.15;;;;;;;17.17;92.49;95005.00;4796699;29;20281;-80
2023/09/05 03:44:00;;;;;;;7.25;5.35;;;;;;;17.16;92.25;95006.03;4788458;30;20461;-80
2023/09/05 03:46:25;;;;;;;7.23;6.47;;;;;;;17.18;91.64;95013.78;4788461;29;20562;-80
2023/09/05 03:48:52;;;;;;;8.60;6.83;;;;;;;16.92;91.75;94986.88;4799949;29;20784;-80
2023/09/05 03:51:18;;;;;;;9.65;7.18;;;;;;;17.05;91.46;94998.97;4797937;29;20574;-80
2023/09/05 03:53:44;;;;;;;8.80;7.00;;;;;;;17.04;91.09;95001.91;4798577;29;20924;-80
2023/09/05 03:56:09;;;;;;;11.47;7.50;;;;;;;17.03;90.87;94997.66;4794770;29;20575;-81
2023/09/05 03:58:34;;;;;;;10.07;8.13;;;;;;;16.84;90.48;94981.97;4793680;29;20445;-80
2023/09/05 04:01:02;;;;;;;9.00;8.03;;;;;;;16.88;90.96;94971.63;4796167;29;20950;-81
2023/09/05 04:03:32;;;;;;;9.05;6.45;;;;;;;17.03;90.73;95002.97;4795511;29;20200;-80
2023/09/05 04:06:00;;;;;;;9.00;7.25;;;;;;;17.06;90.62;94989.97;4788501;30;20509;-81
2023/09/05 04:08:26;;;;;;;12.07;7.57;;;;;;;17.06;90.54;94995.28;4788853;30;20310;-81
2023/09/05 04:10:56;;;;;;;10.43;7.90;;;;;;;16.86;91.15;94973.75;4792645;29;20521;-80
2023/09/05 04:13:22;;;;;;;11.20;8.33;;;;;;;17.04;91.01;94999.25;4796874;29;20435;-80
2023/09/05 04:15:47;;;;;;;9.27;7.30;;;;;;;16.86;91.04;94976.44;4796243;29;20180;-81
2023/09/05 04:18:13;;;;;;;9.18;7.22;;;;;;;17.01;90.77;94999.75;4797575;29;20179;-80
2023/09/05 04:20:38;;;;;;;11.07;6.97;;;;;;;16.94;90.74;94987.44;4791845;29;20203;-81
2023/09/05 04:23:03;;;;;;;9.55;7.15;;;;;;;17.11;90.60;95006.00;4793673;29;20260;-80
2023/09/05 04:25:29;;;;;;;16.45;6.78;;;;;;;17.16;89.95;95011.38;4798998;29;20764;-81
2023/09/05 04:27:54;;;;;;;8.40;7.13;;;;;;;17.20;89.40;95004.50;4793994;29;20248;-80
2023/09/05 04:30:20;;;;;;;12.68;7.65;;;;;;;17.05;89.75;95011.47;4800185;29;20164;-80
2023/09/05 04:32:45;;;;;;;10.35;7.60;;;;;;;17.09;90.39;95005.44;4799754;29;20184;-80
2023/09/05 04:35:10;;;;;;;10.73;8.57;;;;;;;16.95;90.87;94991.69;4802083;29;20842;-80
2023/09/05 04:37:36;;;;;;;10.82;7.78;;;;;;;17.12;91.07;95004.94;4796034;29;20188;-80
2023/09/05 04:40:01;;;;;;;10.80;8.50;;;;;;;16.98;91.38;94985.88;4793865;29;20493;-80
2023/09/05 04:42:26;;;;;;;17.45;7.45;;;;;;;17.19;90.93;95002.09;4781559;29;20271;-80
2023/09/05 04:44:52;;;;;;;10.67;8.00;;;;;;;17.39;89.18;95006.81;4792832;29;20953;-80
2023/09/05 04:47:28;;;;;;;10.83;7.77;;;;;;;16.86;89.67;94933.88;4798703;29;20428;-80
2023/09/05 04:49:56;;;;;;;13.20;8.05;;;;;;;17.33;89.14;95013.97;4792595;29;20445;-79
2023/09/05 04:52:23;;;;;;;8.73;7.25;;;;;;;17.34;89.09;95007.59;4794112;29;20381;-80
2023/09/05 04:54:49;;;;;;;10.30;7.63;;;;;;;17.38;89.04;95011.38;4800135;29;20188;-80
2023/09/05 04:57:16;;;;;;;10.07;7.60;;;;;;;17.38;88.78;95003.38;4794702;29;20191;-80
2023/09/05 04:59:47;;;;;;;9.63;7.60;;;;;;;17.36;88.57;95008.16;4781122;29;20482;-80
2023/09/05 05:02:13;;;;;;;11.05;7.53;;;;;;;17.30;88.96;95011.78;4797718;29;20261;-80
2023/09/05 05:04:40;;;;;;;9.63;6.85;;;;;;;17.32;88.81;95005.16;4795619;29;20249;-81
2023/09/05 05:07:06;;;;;;;8.95;7.10;;;;;;;17.48;88.13;95008.81;4798682;29;20287;-84
2023/09/05 05:09:32;;;;;;;11.73;6.85;;;;;;;17.41;87.43;94994.88;4800211;29;20191;-84
2023/09/05 05:11:59;;;;;;;10.45;7.30;;;;;;;17.77;86.48;94990.75;4806071;29;20152;-85
2023/09/05 05:14:24;;;;;;;9.75;7.50;;;;;;;18.03;85.65;95013.13;4803623;29;20208;-82
2023/09/05 05:16:49;;;;;;;12.40;7.15;;;;;;;17.92;85.09;95030.84;4797391;29;20211;-82
2023/09/05 05:19:15;;;;;;;11.73;7.80;;;;;;;17.84;86.01;95036.63;4793442;29;20465;-82
2023/09/05 05:21:40;;;;;;;8.50;7.07;;;;;;;17.80;86.06;95026.75;4795289;29;20195;-82
2023/09/05 05:24:09;;;;;;;9.65;7.45;;;;;;;17.69;86.45;95016.00;4789426;29;20188;-82
2023/09/05 05:26:34;;;;;;;10.95;7.60;;;;;;;17.71;87.14;95029.88;4787516;30;20254;-82
2023/09/05 05:29:00;;;;;;;10.00;7.43;;;;;;;17.77;86.85;95027.25;4793030;29;20720;-82
2023/09/05 05:31:26;;;;;;;10.35;7.40;;;;;;;17.74;86.50;95023.22;4794178;29;20172;-82
2023/09/05 05:33:52;;;;;;;13.88;7.80;;;;;;;17.62;87.04;95009.25;4783764;29;20207;-82
2023/09/05 05:36:17;;;;;;;8.60;7.47;;;;;;;17.42;87.56;94966.41;4795924;29;20677;-82
2023/09/05 05:38:43;;;;;;;10.38;7.70;;;;;;;17.70;87.36;94992.84;4791968;29;20188;-82
2023/09/05 05:41:09;;;;;;;9.65;7.47;;;;;;;18.08;84.86;95007.81;4796893;29;20200;-82
2023/09/05 05:43:38;;;;;;;13.45;8.23;;;;;;;18.20;84.74;95044.97;4798293;29;20172;-82
2023/09/05 05:46:04;;;;;;;9.52;7.90;;;;;;;17.90;85.51;95034.84;4788810;29;20181;-82
2023/09/05 05:48:29;;;;;;;10.82;8.68;;;;;;;17.69;86.57;95036.50;4796528;29;20172;-82
2023/09/05 05:50:57;;;;;;;13.30;8.20;;;;;;;17.33;86.28;94982.03;4783048;29;20180;-82
2023/09/05 05:53:24;;;;;;;10.52;8.32;;;;;;;17.62;86.75;95009.25;4795694;29;20183;-82
2023/09/05 05:55:50;;;;;;;10.10;7.88;;;;;;;17.69;86.74;95031.97;4791958;29;20270;-82
2023/09/05 05:58:16;;;;;;;11.07;9.10;;;;;;;17.55;86.67;95033.41;4773902;29;20253;-82
2023/09/05 06:00:51;;;;;;;12.63;9.35;;;;;;;17.60;87.24;95032.63;4794562;29;20208;-82
2023/09/05 06:03:25;;;;;;;13.32;8.93;;;;;;;17.62;86.94;95026.03;4800770;29;20662;-81
2023/09/05 06:05:51;;;;;;;11.57;9.02;;;;;;;17.54;86.65;95028.31;4804877;29;20168;-82
2023/09/05 06:08:16;;;;;;;12.68;9.10;;;;;;;17.62;86.85;95036.69;4805016;29;20224;-82
2023/09/05 06:10:42;;;;;;;12.43;8.85;;;;;;;17.71;86.97;95024.53;4804963;29;20730;-82
2023/09/05 06:13:08;;;;;;;14.55;8.48;;;;;;;17.65;86.08;95020.19;4805074;29;20648;-82
2023/09/05 06:15:35;;;;;;;13.40;8.85;;;;;;;17.71;86.28;95031.72;4805179;29;20941;-82
2023/09/05 06:18:01;;;;;;;12.35;8.23;;;;;;;17.60;86.05;95020.13;4805035;29;20621;-82
2023/09/05 06:20:27;;;;;;;13.02;8.95;;;;;;;17.80;85.14;95027.56;4797193;29;20295;-82
2023/09/05 06:22:54;;;;;;;14.48;8.65;;;;;;;17.70;85.47;95014.13;4796335;29;20188;-82
2023/09/05 06:25:19;;;;;;;11.38;8.60;;;;;;;17.86;85.00;95021.22;4795951;29;20184;-82
2023/09/05 06:27:44;;;;;;;19.15;8.82;;;;;;;17.94;85.46;95028.75;4796183;29;20261;-82
2023/09/05 06:30:11;;;;;;;10.80;7.93;;;;;;;17.73;84.98;95003.78;4796790;29;20767;-82
2023/09/05 06:32:36;;;;;;;13.32;8.68;;;;;;;17.89;85.21;95035.91;4780595;29;20191;-81
2023/09/05 06:35:02;;;;;;;16.10;8.50;;;;;;;17.84;85.25;95009.19;4793074;29;20190;-80
2023/09/05 06:37:28;;;;;;;11.55;8.07;;;;;;;17.93;85.10;95031.66;4796229;29;20551;-81
2023/09/05 06:39:55;;;;;;;9.48;8.00;;;;;;;17.79;85.03;95030.47;4778284;29;20208;-83
2023/09/05 06:42:21;;;;;;;12.50;7.95;;;;;;;17.76;85.38;95038.94;4794069;29;20215;-83
2023/09/05 06:44:47;;;;;;;10.50;8.13;;;;;;;17.74;85.96;95044.53;4794491;29;20172;-83
2023/09/05 06:47:13;;;;;;;11.18;7.30;;;;;;;17.66;86.19;95034.31;4793586;29;20199;-83
2023/09/05 06:49:38;;;;;;;8.30;7.28;;;;;;;17.48;86.63;95026.63;4793899;29;20176;-82
2023/09/05 06:52:06;;;;;;;19.02;7.82;;;;;;;17.33;86.51;95006.78;4797358;29;21519;-82
2023/09/05 06:54:32;;;;;;;15.32;7.85;;;;;;;17.60;87.10;95043.28;4775874;30;20187;-82
2023/09/05 06:56:58;;;;;;;9.23;7.18;;;;;;;17.66;86.25;95040.44;4786949;30;20180;-82
2023/09/05 06:59:24;;;;;;;9.07;7.55;;;;;;;17.62;85.93;95043.88;4786512;30;20181;-82
2023/09/05 07:01:50;;;;;;;12.05;7.20;;;;;;;17.49;86.19;95026.38;4794150;29;20270;-82
2023/09/05 07:04:15;;;;;;;10.95;7.10;;;;;;;17.56;85.83;95042.97;4797289;29;20663;-82
2023/09/05 07:06:40;;;;;;;13.25;7.40;;;;;;;17.55;86.22;95043.25;4801746;29;20196;-80
2023/09/05 07:09:07;;;;;;;8.77;7.13;;;;;;;17.58;86.82;95040.06;4797701;29;20187;-80
2023/09/05 07:11:33;;;;;;;10.73;7.38;;;;;;;17.62;85.83;95042.03;4799186;29;20184;-80
2023/09/05 07:13:58;;;;;;;11.43;7.93;;;;;;;17.82;85.39;95067.22;4794247;29;20264;-78
2023/09/05 07:16:24;;;;;;;10.00;7.38;;;;;;;17.74;84.88;95060.50;4778300;29;20189;-80
2023/09/05 07:18:49;;;;;;;8.02;7.18;;;;;;;17.67;85.31;95058.03;4799538;29;20296;-80
2023/09/05 07:21:15;;;;;;;8.25;6.40;;;;;;;17.62;85.00;95057.19;4793772;29;20209;-81
2023/09/05 07:23:40;;;;;;;9.48;7.15;;;;;;;17.51;84.98;95039.44;4784121;29;20641;-81
2023/09/05 07:26:07;;;;;;;8.40;6.40;;;;;;;17.72;84.89;95073.28;4807446;29;20243;-78
2023/09/05 07:28:33;;;;;;;10.50;7.03;;;;;;;17.84;84.51;95086.44;4801601;29;20196;-78
2023/09/05 07:31:01;;;;;;;9.05;6.60;;;;;;;17.76;84.67;95070.91;4800392;29;20184;-78
2023/09/05 07:33:27;;;;;;;9.32;6.20;;;;;;;17.71;84.39;95056.50;4796675;29;20192;-78
2023/09/05 07:35:52;;;;;;;13.93;7.15;;;;;;;17.81;83.97;95079.78;4796777;29;20650;-78
2023/09/05 07:38:21;;;;;;;7.32;5.72;;;;;;;17.77;84.30;95096.50;4779699;29;20275;-78
2023/09/05 07:41:00;;;;;;;6.90;5.63;;;;;;;17.57;84.63;95065.88;4801228;29;20240;-80
2023/09/05 07:43:25;;;;;;;8.20;6.22;;;;;;;17.71;84.69;95099.09;4799049;29;20187;-78
2023/09/05 07:45:50;;;;;;;12.00;7.00;;;;;;;17.60;84.74;95113.31;4798381;29;20920;-78
2023/09/05 07:48:16;;;;;;;7.65;6.40;;;;;;;17.52;85.56;95108.41;4796291;29;20187;-78
2023/09/05 07:50:41;;;;;;;7.65;6.32;;;;;;;17.58;85.64;95110.09;4794807;29;20549;-76
2023/09/05 07:53:06;;;;;;;12.27;6.60;;;;;;;17.54;86.01;95100.19;4801100;29;20184;-77
2023/09/05 07:55:33;;;;;;;9.30;6.72;;;;;;;17.56;86.11;95108.72;4798742;29;20201;-78
2023/09/05 07:57:59;;;;;;;7.78;6.43;;;;;;;17.58;86.60;95106.63;4797626;29;20267;-77
2023/09/05 08:00:27;;;;;;;8.52;6.43;;;;;;;17.59;85.60;95109.03;4793883;29;20287;-78
2023/09/05 08:02:54;;;;;;;9.02;6.57;;;;;;;17.58;85.63;95094.09;4791577;29;20188;-77
2023/09/05 08:05:19;;;;;;;10.90;7.57;;;;;;;17.48;85.84;95086.00;4793937;29;20236;-76
2023/09/05 08:07:45;;;;;;;8.18;6.93;;;;;;;17.69;85.89;95103.06;4796782;29;20185;-77
2023/09/05 08:10:11;;;;;;;11.05;6.25;;;;;;;17.89;85.80;95105.16;4794640;29;20183;-77
2023/09/05 08:12:37;;;;;;;10.00;6.85;;;;;;;18.01;84.51;95103.13;4798415;29;20187;-77
2023/09/05 08:15:05;;;;;;;8.13;6.07;;;;;;;18.12;83.82;95101.38;4798387;29;20176;-77
2023/09/05 08:17:31;;;;;;;10.00;6.78;;;;;;;18.17;82.68;95090.75;4798244;29;20176;-81
2023/09/05 08:19:57;;;;;;;10.02;5.72;;;;;;;18.20;83.15;95101.75;4793255;29;20173;-81
2023/09/05 08:22:23;;;;;;;8.00;6.78;;;;;;;18.13;83.03;95090.47;4788533;30;20764;-79
2023/09/05 08:24:49;;;;;;;10.15;6.75;;;;;;;18.08;82.82;95077.91;4793641;29;20302;-78
2023/09/05 08:27:14;;;;;;;8.52;6.60;;;;;;;18.41;83.87;95108.06;4796267;29;20251;-81
2023/09/05 08:29:41;;;;;;;7.90;5.70;;;;;;;18.55;82.16;95103.91;4795268;29;20253;-83
2023/09/05 08:32:06;;;;;;;9.20;6.70;;;;;;;18.66;80.98;95096.84;4798775;29;20325;-84
2023/09/05 08:34:33;;;;;;;8.10;6.10;;;;;;;18.82;80.36;95102.03;4802311;29;20736;-81
2023/09/05 08:36:59;;;;;;;10.13;6.05;;;;;;;19.10;79.60;95119.59;4804234;29;20184;-84
2023/09/05 08:39:25;;;;;;;7.22;6.43;;;;;;;19.14;78.34;95115.31;4804096;29;20302;-84
2023/09/05 08:41:51;;;;;;;8.45;5.82;;;;;;;19.22;77.58;95128.19;4799059;29;20238;-84
2023/09/05 08:44:17;;;;;;;7.35;5.38;;;;;;;19.06;77.98;95120.34;4798104;29;20204;-81
2023/09/05 08:46:43;;;;;;;5.80;5.20;;;;;;;19.07;78.28;95112.06;4791902;29;20688;-82
2023/09/05 08:49:09;;;;;;;6.65;5.07;;;;;;;19.18;77.49;95118.28;4794947;29;20263;-81
2023/09/05 08:51:39;;;;;;;7.57;5.22;;;;;;;19.12;77.27;95105.94;4803987;29;20287;-81
2023/09/05 08:54:06;;;;;;;12.27;4.80;;;;;;;19.33;76.57;95128.25;4794154;29;20188;-81
2023/09/05 08:56:32;;;;;;;5.72;4.85;;;;;;;19.31;76.49;95122.34;4791235;29;20192;-81
2023/09/05 08:59:01;;;;;;;7.40;5.10;;;;;;;19.31;76.13;95107.16;4792560;29;20560;-81
2023/09/05 09:01:29;;;;;;;8.52;5.18;;;;;;;19.51;74.95;95131.31;4769187;29;20249;-82
2023/09/05 09:03:57;;;;;;;6.18;4.75;;;;;;;19.57;74.31;95138.28;4784163;29;20197;-81
2023/09/05 09:06:26;;;;;;;5.90;4.97;;;;;;;19.58;74.17;95110.53;4799960;29;20597;-81
2023/09/05 09:08:52;;;;;;;9.65;4.68;;;;;;;19.83;73.84;95125.84;4803412;29;20184;-81
2023/09/05 09:11:22;;;;;;;7.75;4.50;;;;;;;20.37;72.34;95149.56;4792563;29;20187;-82
2023/09/05 09:13:50;;;;;;;6.05;4.55;;;;;;;20.71;70.64;95141.84;4785152;29;20176;-79
2023/09/05 09:16:18;;;;;;;14.35;4.75;;;;;;;21.00;69.17;95136.78;4793032;29;20211;-80
2023/09/05 09:18:46;;;;;;;8.35;5.00;;;;;;;21.00;67.98;95131.41;4803141;29;20187;-81
2023/09/05 09:21:16;;;;;;;5.43;4.15;;;;;;;21.14;67.65;95132.47;4796801;29;20218;-80
2023/09/05 09:23:41;;;;;;;5.43;3.83;;;;;;;21.19;68.19;95123.66;4795741;29;20188;-80
2023/09/05 09:26:07;;;;;;;6.28;4.30;;;;;;;21.31;67.59;95114.25;4802804;29;20214;-80
2023/09/05 09:28:32;;;;;;;5.65;4.93;;;;;;;21.51;66.61;95126.00;4803106;29;20657;-80
2023/09/05 09:31:23;;;;;;;6.78;4.10;;;;;;;21.48;65.81;95131.88;4794654;29;20216;-80
2023/09/05 09:33:55;;;;;;;8.25;4.50;;;;;;;21.53;65.72;95138.06;4790013;29;20194;-81
2023/09/05 09:36:20;;;;;;;8.70;4.25;;;;;;;21.14;66.13;95102.19;4794788;29;20660;-81
2023/09/05 09:38:46;;;;;;;4.50;3.72;;;;;;;21.30;66.35;95133.28;4801002;29;20190;-81
2023/09/05 09:41:12;;;;;;;9.10;3.97;;;;;;;21.07;66.47;95110.53;4794740;29;20207;-81
2023/09/05 09:43:38;;;;;;;8.40;3.60;;;;;;;21.12;66.04;95123.88;4796448;29;20699;-80
2023/09/05 09:46:05;;;;;;;6.30;4.00;;;;;;;21.04;66.49;95117.22;4799827;29;20184;-79
2023/09/05 09:48:34;;;;;;;4.10;3.70;;;;;;;20.91;66.82;95104.38;4777420;29;20572;-80
2023/09/05 09:51:00;;;;;;;4.95;4.38;;;;;;;21.38;67.29;95116.63;4795694;29;20179;-81
2023/09/05 09:53:37;;;;;;;4.68;3.72;;;;;;;21.36;65.22;95122.25;4803106;29;20271;-79
2023/09/05 09:56:10;;;;;;;4.95;3.78;;;;;;;21.34;65.89;95108.38;4799258;29;20176;-79
2023/09/05 09:58:40;;;;;;;9.70;3.97;;;;;;;21.13;65.26;95106.75;4794031;29;20183;-78
2023/09/05 10:01:09;;;;;;;5.47;3.83;;;;;;;21.20;65.77;95118.00;4792366;29;20594;-79
2023/09/05 10:03:36;;;;;;;5.90;3.97;;;;;;;21.28;64.81;95125.50;4785390;29;20279;-79
2023/09/05 10:06:04;;;;;;;4.25;3.78;;;;;;;21.30;63.48;95115.31;4783590;29;20195;-82
2023/09/05 10:08:31;;;;;;;4.35;3.28;;;;;;;21.41;63.96;95110.75;4791611;29;20646;-83
2023/09/05 10:10:57;;;;;;;3.92;3.47;;;;;;;21.41;62.77;95092.00;4789151;29;20740;-81
2023/09/05 10:13:27;;;;;;;5.40;4.18;;;;;;;21.41;62.92;95081.28;4770990;29;20274;-84
2023/09/05 10:15:56;;;;;;;4.55;3.25;;;;;;;21.67;62.33;95114.16;4789840;29;20184;-83
2023/09/05 10:18:22;;;;;;;4.38;3.22;;;;;;;21.59;61.42;95114.72;4796422;29;20176;-83
2023/09/05 10:20:50;;;;;;;3.55;3.20;;;;;;;21.48;62.09;95116.63;4791522;29;20768;-81
2023/09/05 10:23:20;;;;;;;4.60;2.92;;;;;;;21.35;63.05;95125.25;4795541;29;20172;-79
2023/09/05 10:25:47;;;;;;;7.78;3.45;;;;;;;21.21;62.27;95118.81;4798744;29;20199;-79
2023/09/05 10:28:13;;;;;;;4.47;3.33;;;;;;;21.14;62.50;95137.00;4797433;29;20234;-79
2023/09/05 10:30:40;;;;;;;5.97;3.30;;;;;;;20.87;62.82;95113.22;4797421;29;20188;-80
2023/09/05 10:33:09;;;;;;;7.28;3.05;;;;;;;20.77;63.03;95103.31;4797687;29;20173;-79
2023/09/05 10:35:34;;;;;;;7.25;3.45;;;;;;;20.99;63.07;95124.47;4793031;29;20188;-78
2023/09/05 10:38:04;;;;;;;8.40;3.33;;;;;;;21.04;63.04;95125.25;4795973;29;20183;-84
2023/09/05 10:40:38;;;;;;;6.93;3.15;;;;;;;21.14;62.85;95132.47;4797968;29;20196;-82
2023/09/05 10:43:14;;;;;;;7.05;3.30;;;;;;;21.05;62.46;95136.75;4795805;29;20186;-83
2023/09/05 10:45:40;;;;;;;3.95;3.20;;;;;;;21.05;62.86;95137.56;4806403;29;20184;-82
2023/09/05 10:48:11;;;;;;;5.07;2.80;;;;;;;21.19;63.14;95116.41;4808003;29;20268;-80
2023/09/05 10:51:08;;;;;;;4.65;3.20;;;;;;;21.16;61.60;95138.34;4807927;29;20172;-83
2023/09/05 10:53:35;;;;;;;8.85;3.05;;;;;;;21.19;62.99;95111.06;4798638;29;20263;-79
2023/09/05 10:56:01;;;;;;;7.90;3.25;;;;;;;21.37;61.93;95112.34;4800015;29;20269;-79
2023/09/05 10:58:36;;;;;;;9.63;2.85;;;;;;;21.38;61.04;95098.69;4796466;29;20184;-79
2023/09/05 11:01:01;;;;;;;4.82;3.17;;;;;;;21.61;62.14;95134.81;4796399;29;20582;-79
2023/09/05 11:03:36;;;;;;;12.45;2.90;;;;;;;21.56;61.18;95125.97;4781343;29;20333;-79
2023/09/05 11:06:11;;;;;;;4.43;2.78;;;;;;;21.55;60.82;95113.66;4794885;29;20285;-79
2023/09/05 11:08:37;;;;;;;3.15;2.85;;;;;;;21.46;60.80;95114.22;4780402;29;20167;-79
2023/09/05 11:11:04;;;;;;;5.57;3.38;;;;;;;21.55;61.38;95122.50;4800916;29;20329;-79
2023/09/05 11:13:30;;;;;;;3.55;3.00;;;;;;;21.72;61.79;95100.72;4800244;29;20187;-78
2023/09/05 11:15:59;;;;;;;6.07;2.92;;;;;;;21.88;62.15;95122.94;4799554;29;20179;-78
2023/09/05 11:18:24;;;;;;;5.88;2.78;;;;;;;21.88;59.32;95112.97;4793500;29;20179;-78
2023/09/05 11:20:50;;;;;;;8.43;2.90;;;;;;;21.77;58.19;95100.72;4796759;29;20188;-78
2023/09/05 11:23:21;;;;;;;5.70;2.92;;;;;;;21.73;58.82;95096.97;4796564;29;20192;-77
2023/09/05 11:25:53;;;;;;;5.82;3.72;;;;;;;21.61;59.41;95086.59;4800577;29;20544;-74
2023/09/05 11:28:22;;;;;;;4.85;3.28;;;;;;;21.68;59.89;95091.63;4804450;29;20227;-77
2023/09/05 11:30:49;;;;;;;5.80;3.20;;;;;;;21.61;60.42;95113.38;4797678;29;20189;-77